VIV7446 MMMX-MMTL
Flight info
| Callsign | VIV7446 |
|---|---|
| Flight time | N/A |
| Altitude | 37000 |
| Route | NOXOS3A NOXOS DCT ALMET UT172 TEVET UT108 VER UJ24 IMUBI IMUBI1A |
| Aircraft | A320/M-SDE3FGHIRWY/LB1 |
Departure
| Time | 2026-05-04 21:57 |
|---|---|
| Airport | Mexico City Benito Juárez International Airport (MMMX) |
Arrival
| Time | N/A |
|---|---|
| Airport | Felipe Carrillo Puerto International Airport Tulum (MMTL) |
| Time | Latitude | Longitude | Altitude | Speed | Heading |
|---|---|---|---|---|---|
| 2026-05-04 20:37 | 19.43251 | -99.08743 | 7303 ft | 0 kts | 104° |
| 2026-05-04 21:36 | 19.43258 | -99.08764 | 7303 ft | 4 kts | 130° |
| 2026-05-04 21:37 | 19.43277 | -99.08775 | 7303 ft | 4 kts | 192° |
| 2026-05-04 21:37 | 19.43299 | -99.08766 | 7303 ft | 1 kts | 211° |
| 2026-05-04 21:45 | 19.43294 | -99.08770 | 7303 ft | 3 kts | 210° |
| 2026-05-04 21:45 | 19.43274 | -99.08782 | 7303 ft | 5 kts | 211° |
| 2026-05-04 21:45 | 19.43232 | -99.08790 | 7303 ft | 7 kts | 177° |
| 2026-05-04 21:45 | 19.43178 | -99.08767 | 7303 ft | 9 kts | 146° |
| 2026-05-04 21:46 | 19.43139 | -99.08714 | 7303 ft | 9 kts | 120° |
| 2026-05-04 21:46 | 19.43118 | -99.08651 | 7303 ft | 9 kts | 86° |
| 2026-05-04 21:46 | 19.43149 | -99.08589 | 7303 ft | 10 kts | 59° |
| 2026-05-04 21:46 | 19.43186 | -99.08524 | 7303 ft | 11 kts | 59° |
| 2026-05-04 21:47 | 19.43225 | -99.08453 | 7303 ft | 11 kts | 60° |
| 2026-05-04 21:47 | 19.43267 | -99.08378 | 7303 ft | 12 kts | 59° |
| 2026-05-04 21:47 | 19.43312 | -99.08298 | 7303 ft | 13 kts | 59° |
| 2026-05-04 21:47 | 19.43358 | -99.08215 | 7303 ft | 14 kts | 59° |
| 2026-05-04 21:48 | 19.43407 | -99.08125 | 7303 ft | 14 kts | 59° |
| 2026-05-04 21:48 | 19.43461 | -99.08033 | 7303 ft | 15 kts | 58° |
| 2026-05-04 21:48 | 19.43516 | -99.07935 | 7303 ft | 16 kts | 59° |
| 2026-05-04 21:48 | 19.43573 | -99.07833 | 7303 ft | 17 kts | 59° |
| 2026-05-04 21:49 | 19.43634 | -99.07725 | 7303 ft | 17 kts | 59° |
| 2026-05-04 21:49 | 19.43690 | -99.07625 | 7303 ft | 12 kts | 59° |
| 2026-05-04 21:49 | 19.43733 | -99.07547 | 7303 ft | 12 kts | 60° |
| 2026-05-04 21:49 | 19.43774 | -99.07477 | 7303 ft | 11 kts | 59° |
| 2026-05-04 21:50 | 19.43810 | -99.07412 | 7303 ft | 10 kts | 59° |
| 2026-05-04 21:50 | 19.43843 | -99.07352 | 7303 ft | 9 kts | 59° |
| 2026-05-04 21:50 | 19.43874 | -99.07296 | 7303 ft | 9 kts | 59° |
| 2026-05-04 21:50 | 19.43906 | -99.07239 | 7303 ft | 9 kts | 59° |
| 2026-05-04 21:51 | 19.43939 | -99.07181 | 7303 ft | 9 kts | 59° |
| 2026-05-04 21:51 | 19.43973 | -99.07122 | 7303 ft | 10 kts | 59° |
| 2026-05-04 21:51 | 19.44008 | -99.07060 | 7303 ft | 10 kts | 59° |
| 2026-05-04 21:51 | 19.44043 | -99.06996 | 7303 ft | 10 kts | 59° |
| 2026-05-04 21:52 | 19.44080 | -99.06930 | 7303 ft | 10 kts | 59° |
| 2026-05-04 21:52 | 19.44117 | -99.06864 | 7303 ft | 11 kts | 59° |
| 2026-05-04 21:52 | 19.44156 | -99.06795 | 7303 ft | 11 kts | 59° |
| 2026-05-04 21:52 | 19.44195 | -99.06726 | 7303 ft | 11 kts | 59° |
| 2026-05-04 21:53 | 19.44235 | -99.06654 | 7303 ft | 11 kts | 59° |
| 2026-05-04 21:53 | 19.44276 | -99.06582 | 7303 ft | 12 kts | 59° |
| 2026-05-04 21:53 | 19.44319 | -99.06508 | 7303 ft | 12 kts | 59° |
| 2026-05-04 21:53 | 19.44361 | -99.06432 | 7303 ft | 11 kts | 62° |
| 2026-05-04 21:54 | 19.44391 | -99.06378 | 7303 ft | 8 kts | 58° |
| 2026-05-04 21:54 | 19.44417 | -99.06327 | 7303 ft | 8 kts | 72° |
| 2026-05-04 21:54 | 19.44419 | -99.06288 | 7303 ft | 4 kts | 94° |
| 2026-05-04 21:54 | 19.44410 | -99.06255 | 7303 ft | 5 kts | 110° |
| 2026-05-04 21:55 | 19.44396 | -99.06220 | 7303 ft | 6 kts | 112° |
| 2026-05-04 21:55 | 19.44366 | -99.06195 | 7301 ft | 7 kts | 199° |
| 2026-05-04 21:55 | 19.44347 | -99.06224 | 7301 ft | 0 kts | 241° |
| 2026-05-04 21:56 | 19.44346 | -99.06225 | 7301 ft | 2 kts | 241° |
| 2026-05-04 21:56 | 19.44237 | -99.06421 | 7303 ft | 65 kts | 239° |
| 2026-05-04 21:56 | 19.43898 | -99.07022 | 7304 ft | 123 kts | 239° |
| 2026-05-04 21:57 | 19.43374 | -99.07955 | 7305 ft | 170 kts | 239° |
| 2026-05-04 21:57 | 19.42739 | -99.09093 | 7785 ft | 179 kts | 240° |
| 2026-05-04 21:57 | 19.42088 | -99.10242 | 8645 ft | 185 kts | 239° |
| 2026-05-04 21:57 | 19.41404 | -99.11444 | 8801 ft | 198 kts | 239° |
| 2026-05-04 21:58 | 19.40687 | -99.12717 | 8937 ft | 211 kts | 240° |
| 2026-05-04 21:58 | 19.39912 | -99.14097 | 9060 ft | 225 kts | 239° |
| 2026-05-04 21:58 | 19.39087 | -99.15566 | 9139 ft | 239 kts | 240° |
| 2026-05-04 21:58 | 19.38090 | -99.17022 | 9247 ft | 250 kts | 219° |
| 2026-05-04 21:59 | 19.36489 | -99.17707 | 9429 ft | 255 kts | 180° |
| 2026-05-04 21:59 | 19.34810 | -99.17227 | 9835 ft | 254 kts | 143° |
| 2026-05-04 21:59 | 19.33607 | -99.15876 | 10305 ft | 255 kts | 121° |
| 2026-05-04 21:59 | 19.32659 | -99.14287 | 10768 ft | 256 kts | 121° |
| 2026-05-04 22:00 | 19.31712 | -99.12681 | 11242 ft | 257 kts | 121° |
| 2026-05-04 22:00 | 19.30776 | -99.11090 | 11731 ft | 259 kts | 120° |
| 2026-05-04 22:00 | 19.29819 | -99.09461 | 12226 ft | 262 kts | 121° |
| 2026-05-04 22:00 | 19.28852 | -99.07822 | 12696 ft | 264 kts | 120° |
| 2026-05-04 22:01 | 19.27871 | -99.06159 | 13171 ft | 267 kts | 120° |
| 2026-05-04 22:01 | 19.27001 | -99.04421 | 13626 ft | 268 kts | 103° |
| 2026-05-04 22:01 | 19.26871 | -99.02473 | 13981 ft | 271 kts | 77° |
| 2026-05-04 22:01 | 19.27473 | -99.00521 | 14099 ft | 289 kts | 68° |
| 2026-05-04 22:02 | 19.28216 | -98.98468 | 14247 ft | 307 kts | 68° |
| 2026-05-04 22:02 | 19.28979 | -98.96359 | 14622 ft | 314 kts | 68° |
| 2026-05-04 22:02 | 19.29915 | -98.94267 | 15088 ft | 316 kts | 56° |
| 2026-05-04 22:02 | 19.31320 | -98.92487 | 15616 ft | 316 kts | 41° |
| 2026-05-04 22:03 | 19.32996 | -98.90970 | 16124 ft | 318 kts | 40° |
| 2026-05-04 22:03 | 19.34690 | -98.89445 | 16633 ft | 320 kts | 40° |
| 2026-05-04 22:03 | 19.36386 | -98.87913 | 17174 ft | 322 kts | 40° |
| 2026-05-04 22:03 | 19.38092 | -98.86369 | 17695 ft | 323 kts | 40° |
| 2026-05-04 22:04 | 19.39807 | -98.84812 | 18209 ft | 326 kts | 40° |
| 2026-05-04 22:04 | 19.41509 | -98.83268 | 18662 ft | 327 kts | 40° |
| 2026-05-04 22:04 | 19.43185 | -98.81621 | 19087 ft | 330 kts | 48° |
| 2026-05-04 22:04 | 19.44509 | -98.79626 | 19493 ft | 334 kts | 61° |
| 2026-05-04 22:05 | 19.45411 | -98.77346 | 19885 ft | 338 kts | 68° |
| 2026-05-04 22:05 | 19.46232 | -98.75006 | 20301 ft | 340 kts | 68° |
| 2026-05-04 22:05 | 19.47064 | -98.72649 | 20697 ft | 343 kts | 69° |
| 2026-05-04 22:05 | 19.47654 | -98.70187 | 21100 ft | 347 kts | 81° |
| 2026-05-04 22:06 | 19.47749 | -98.67584 | 21250 ft | 361 kts | 91° |
| 2026-05-04 22:06 | 19.47632 | -98.64886 | 21377 ft | 373 kts | 91° |
| 2026-05-04 22:06 | 19.47512 | -98.62101 | 21519 ft | 384 kts | 91° |
| 2026-05-04 22:06 | 19.47391 | -98.59272 | 21654 ft | 395 kts | 91° |
| 2026-05-04 22:07 | 19.47267 | -98.56338 | 21948 ft | 401 kts | 91° |
| 2026-05-04 22:07 | 19.47141 | -98.53373 | 22360 ft | 404 kts | 91° |
| 2026-05-04 22:07 | 19.47016 | -98.50387 | 22782 ft | 407 kts | 91° |
| 2026-05-04 22:07 | 19.46892 | -98.47380 | 23187 ft | 410 kts | 91° |
| 2026-05-04 22:08 | 19.46768 | -98.44357 | 23575 ft | 412 kts | 91° |
| 2026-05-04 22:08 | 19.46649 | -98.41310 | 23964 ft | 414 kts | 89° |
| 2026-05-04 22:08 | 19.46853 | -98.38270 | 24283 ft | 415 kts | 78° |
| 2026-05-04 22:08 | 19.47563 | -98.35315 | 24612 ft | 415 kts | 69° |
| 2026-05-04 22:09 | 19.48597 | -98.32494 | 24901 ft | 417 kts | 67° |
| 2026-05-04 22:09 | 19.49659 | -98.29624 | 25187 ft | 420 kts | 67° |
| 2026-05-04 22:09 | 19.50723 | -98.26739 | 25507 ft | 422 kts | 67° |
| 2026-05-04 22:09 | 19.51792 | -98.23834 | 25829 ft | 424 kts | 67° |
| 2026-05-04 22:10 | 19.52863 | -98.20916 | 26146 ft | 426 kts | 67° |
| 2026-05-04 22:10 | 19.53939 | -98.17985 | 26465 ft | 428 kts | 67° |
| 2026-05-04 22:10 | 19.55018 | -98.15039 | 26772 ft | 430 kts | 67° |
| 2026-05-04 22:10 | 19.56099 | -98.12082 | 27075 ft | 431 kts | 67° |
| 2026-05-04 22:11 | 19.57188 | -98.09113 | 27368 ft | 433 kts | 67° |
| 2026-05-04 22:11 | 19.58197 | -98.06093 | 27651 ft | 436 kts | 74° |
| 2026-05-04 22:11 | 19.58696 | -98.02956 | 27934 ft | 440 kts | 85° |
| 2026-05-04 22:11 | 19.58610 | -97.99702 | 28217 ft | 444 kts | 96° |
| 2026-05-04 22:12 | 19.57910 | -97.96494 | 28515 ft | 449 kts | 108° |
| 2026-05-04 22:12 | 19.56630 | -97.93465 | 28809 ft | 453 kts | 116° |
| 2026-05-04 22:12 | 19.55163 | -97.90498 | 29101 ft | 455 kts | 116° |
| 2026-05-04 22:12 | 19.53696 | -97.87515 | 29397 ft | 457 kts | 116° |
| 2026-05-04 22:13 | 19.52231 | -97.84517 | 29690 ft | 459 kts | 115° |
| 2026-05-04 22:13 | 19.51009 | -97.81394 | 29975 ft | 459 kts | 105° |
| 2026-05-04 22:13 | 19.50212 | -97.78116 | 30222 ft | 460 kts | 101° |
| 2026-05-04 22:13 | 19.49498 | -97.74854 | 30491 ft | 461 kts | 101° |
| 2026-05-04 22:14 | 19.48769 | -97.71546 | 30836 ft | 461 kts | 101° |
| 2026-05-04 22:14 | 19.48039 | -97.68234 | 31150 ft | 461 kts | 102° |
| 2026-05-04 22:14 | 19.47307 | -97.64924 | 31461 ft | 462 kts | 102° |
| 2026-05-04 22:14 | 19.46575 | -97.61612 | 31780 ft | 462 kts | 102° |
| 2026-05-04 22:15 | 19.45842 | -97.58298 | 32124 ft | 462 kts | 102° |
| 2026-05-04 22:15 | 19.45335 | -97.56007 | 32321 ft | 463 kts | 101° |
| 2026-05-04 22:15 | 19.44672 | -97.53020 | 32612 ft | 464 kts | 102° |
| 2026-05-04 22:15 | 19.43931 | -97.49689 | 32935 ft | 464 kts | 102° |
| 2026-05-04 22:16 | 19.43196 | -97.46403 | 33263 ft | 465 kts | 102° |